This is the latest recevied weather packets stored in our database for station/object KG4IFE-13. If no packets are shown the sender has not sent any weather packets the latest 10 day(s).
| Time | Temp. | Humidity | Pressure | Rain* | Wind** | Luminosity | Snow |
|---|---|---|---|---|---|---|---|
| 1777879190 | 9.44° C | 64% | 1016.4 hPa | - | - | - | - |
| 1777875879 | 10° C | 65% | 1016.8 hPa | - | - | - | - |
| 1777875598 | 10° C | 64% | 1016.8 hPa | - | - | - | - |
| 1777875279 | 10° C | 64% | 1016.8 hPa | - | - | - | - |
| 1777874074 | 10° C | 61% | 1016.9 hPa | - | - | - | - |
| 1777873171 | 10° C | 63% | 1016.8 hPa | - | - | - | - |
| 1777864443 | 8.33° C | 59% | 1016.6 hPa | - | - | - | - |
| 1777864140 | 8.89° C | 58% | 1016.6 hPa | - | - | - | - |
| 1777863838 | 8.89° C | 58% | 1016.6 hPa | - | - | - | - |
| 1777863237 | 8.89° C | 58% | 1016.7 hPa | - | - | - | - |
| 1777860831 | 9.44° C | 56% | 1016.4 hPa | - | - | - | - |
| 1777859926 | 9.44° C | 56% | 1016.3 hPa | - | - | - | - |
| 1777857518 | 10.56° C | 55% | 1015.9 hPa | - | - | - | - |
| 1777856916 | 11.11° C | 54% | 1015.9 hPa | - | - | - | - |
| 1777856334 | 11.67° C | 52% | 1015.8 hPa | - | - | - | - |
| 1777855112 | 12.78° C | 49% | 1015.5 hPa | - | - | - | - |
| 1777852704 | 15.56° C | 38% | 1015.5 hPa | - | - | - | - |
| 1777852102 | 15.56° C | 38% | 1015.5 hPa | - | - | - | - |
| 1777849090 | 17.78° C | 35% | 1015.3 hPa | - | - | - | - |
| 1777847286 | 17.78° C | 35% | 1015.4 hPa | - | - | - | - |
| 1777845177 | 17.78° C | 34% | 1015.7 hPa | - | - | - | - |
| 1777842468 | 18.89° C | 33% | 1016 hPa | - | - | - | - |
| 1777841266 | 20° C | 32% | 1016.2 hPa | - | - | - | - |
| 1777840985 | 19.44° C | 33% | 1016.2 hPa | - | - | - | - |
| 1777837051 | 19.44° C | 36% | 1017.1 hPa | - | - | - | - |
* Rain since midnight (hover to see other rain measurements)
** Current wind speed in m/s (hover to see current wind gust speed)